Time;durP1;ratioP1;P1;durP2;ratioP2;P2;SDS_P1;SDS_P2;PMS_P1;PMS_P2;Temp;Humidity;BMP_temperature;BMP_pressure;BME280_temperature;BME280_humidity;BME280_pressure;Samples;Min_cycle;Max_cycle;Signal;HPM_P1;HPM_P2
2022/10/15 00:01:07;;;;;;;0.90;0.90;;;13.50;99.90;;;;;;5087457;28;20217;-51
2022/10/15 00:03:36;;;;;;;1.53;0.77;;;13.50;99.90;;;;;;5086414;28;20270;-53
2022/10/15 00:06:09;;;;;;;1.03;0.70;;;13.50;99.90;;;;;;5083319;28;20231;-51
2022/10/15 00:08:37;;;;;;;1.63;0.67;;;13.50;99.90;;;;;;5091495;28;20204;-51
2022/10/15 00:11:10;;;;;;;1.33;0.60;;;13.50;99.90;;;;;;5090775;28;20203;-51
2022/10/15 00:13:37;;;;;;;0.90;0.90;;;13.50;99.90;;;;;;5082837;28;20620;-51
2022/10/15 00:16:07;;;;;;;2.97;0.90;;;13.50;99.90;;;;;;5074439;28;20665;-51
2022/10/15 00:18:34;;;;;;;1.97;0.80;;;13.50;99.90;;;;;;5082910;28;20256;-52
2022/10/15 00:21:01;;;;;;;2.27;1.07;;;13.50;99.90;;;;;;5073117;28;20196;-51
2022/10/15 00:23:31;;;;;;;0.80;0.80;;;13.50;99.90;;;;;;5078034;28;20221;-51
2022/10/15 00:26:06;;;;;;;1.23;1.23;;;13.50;99.90;;;;;;5071494;28;20208;-51
2022/10/15 00:28:34;;;;;;;1.90;1.67;;;13.50;99.90;;;;;;5071310;28;20700;-51
2022/10/15 00:31:03;;;;;;;3.23;1.43;;;13.50;99.90;;;;;;5081701;28;20201;-51
2022/10/15 00:33:30;;;;;;;2.40;0.97;;;13.50;99.90;;;;;;5090703;28;20223;-51
2022/10/15 00:36:01;;;;;;;2.83;0.90;;;13.40;99.90;;;;;;5091513;28;20207;-51
2022/10/15 00:38:30;;;;;;;2.03;1.20;;;13.50;99.90;;;;;;5091232;28;20204;-51
2022/10/15 00:40:58;;;;;;;1.67;1.17;;;13.40;99.90;;;;;;5090801;28;20206;-51
2022/10/15 00:43:44;;;;;;;2.13;1.20;;;13.40;99.90;;;;;;5082678;28;20220;-51
2022/10/15 00:46:28;;;;;;;4.03;1.13;;;13.40;99.90;;;;;;5083578;28;20283;-51
2022/10/15 00:48:58;;;;;;;1.37;1.27;;;13.40;99.90;;;;;;5083498;28;20254;-51
2022/10/15 00:51:35;;;;;;;1.13;1.10;;;13.50;99.90;;;;;;5077694;28;20189;-52
2022/10/15 00:54:04;;;;;;;2.30;1.40;;;13.50;99.90;;;;;;5091212;28;20284;-52
2022/10/15 00:56:33;;;;;;;1.23;0.70;;;13.50;99.90;;;;;;5082524;28;20198;-52
2022/10/15 00:59:01;;;;;;;1.63;0.90;;;13.40;99.90;;;;;;5081401;28;20204;-51
2022/10/15 01:01:28;;;;;;;1.90;1.43;;;13.40;99.90;;;;;;5074361;28;20286;-51
2022/10/15 01:03:56;;;;;;;1.30;1.20;;;13.50;99.90;;;;;;5077242;28;20251;-51
2022/10/15 01:06:24;;;;;;;1.03;1.00;;;13.40;99.90;;;;;;5085818;28;20219;-51
2022/10/15 01:08:51;;;;;;;1.47;1.20;;;13.50;99.90;;;;;;5090084;28;20228;-51
2022/10/15 01:11:33;;;;;;;1.27;1.27;;;13.40;99.90;;;;;;5085610;28;20196;-50
2022/10/15 01:14:12;;;;;;;1.73;0.93;;;13.50;99.90;;;;;;5082447;28;20198;-51
2022/10/15 01:16:45;;;;;;;2.30;1.93;;;13.50;99.90;;;;;;5093413;28;20307;-50
2022/10/15 01:19:31;;;;;;;0.87;0.80;;;13.40;99.90;;;;;;5093267;28;20204;-51
2022/10/15 01:22:03;;;;;;;3.80;0.87;;;13.40;99.90;;;;;;5089236;28;20216;-51
2022/10/15 01:24:44;;;;;;;0.77;0.73;;;13.50;99.90;;;;;;5087720;28;20204;-50
2022/10/15 01:27:31;;;;;;;0.63;0.63;;;13.40;99.90;;;;;;5077533;28;20231;-51
2022/10/15 01:30:27;;;;;;;2.23;0.80;;;13.40;99.90;;;;;;5092729;28;20196;-51
2022/10/15 01:33:03;;;;;;;1.13;0.87;;;13.40;99.90;;;;;;5084854;28;20235;-51
2022/10/15 01:35:38;;;;;;;1.93;0.80;;;13.30;99.90;;;;;;5084177;28;20230;-51
2022/10/15 01:38:18;;;;;;;1.00;1.00;;;13.40;99.90;;;;;;5087467;28;20200;-51
2022/10/15 01:40:50;;;;;;;1.20;1.17;;;13.40;99.90;;;;;;5094013;28;20206;-51
2022/10/15 01:43:24;;;;;;;0.90;0.70;;;13.40;99.90;;;;;;5075650;28;20235;-51
2022/10/15 01:45:57;;;;;;;1.33;1.23;;;13.40;99.90;;;;;;5078319;28;20255;-51
2022/10/15 01:48:28;;;;;;;1.47;1.10;;;13.40;99.90;;;;;;5078752;28;20203;-51
2022/10/15 01:51:00;;;;;;;0.70;0.70;;;13.40;99.90;;;;;;5074462;28;20300;-51
2022/10/15 01:53:29;;;;;;;1.83;1.50;;;13.40;99.90;;;;;;5081587;28;20213;-51
2022/10/15 01:56:00;;;;;;;0.83;0.83;;;13.40;99.90;;;;;;5081895;28;20232;-51
2022/10/15 01:58:30;;;;;;;0.73;0.73;;;13.40;99.90;;;;;;5084055;28;20229;-51
2022/10/15 02:00:59;;;;;;;1.07;0.60;;;13.50;99.90;;;;;;5074629;28;20208;-51
2022/10/15 02:03:27;;;;;;;0.87;0.87;;;13.50;99.90;;;;;;5081713;28;20624;-52
2022/10/15 02:06:00;;;;;;;1.17;0.67;;;13.40;99.90;;;;;;5073656;28;20286;-50
2022/10/15 02:08:37;;;;;;;1.40;0.80;;;13.40;99.90;;;;;;5084860;28;20197;-51
2022/10/15 02:11:09;;;;;;;3.63;0.90;;;13.40;99.90;;;;;;5074583;28;20394;-51
2022/10/15 02:13:51;;;;;;;3.70;1.33;;;13.40;99.90;;;;;;5089708;28;20294;-51
2022/10/15 02:16:25;;;;;;;0.87;0.40;;;13.40;99.90;;;;;;5093706;28;20723;-51
2022/10/15 02:19:00;;;;;;;1.50;0.47;;;13.40;99.90;;;;;;5093525;28;20210;-51
2022/10/15 02:21:32;;;;;;;1.70;0.50;;;13.40;99.90;;;;;;5093512;28;20203;-51
2022/10/15 02:24:06;;;;;;;0.93;0.60;;;13.40;99.90;;;;;;5082455;28;20204;-51
2022/10/15 02:26:35;;;;;;;0.60;0.60;;;13.40;99.90;;;;;;5084685;28;20283;-51
2022/10/15 02:29:05;;;;;;;1.53;0.50;;;13.40;99.90;;;;;;5073015;28;20209;-51
2022/10/15 02:31:35;;;;;;;0.90;0.80;;;13.50;99.90;;;;;;5073251;28;20213;-50
2022/10/15 02:34:05;;;;;;;1.23;0.70;;;13.50;99.90;;;;;;5073189;28;20333;-51
2022/10/15 02:36:33;;;;;;;1.13;0.60;;;13.50;99.90;;;;;;5083525;28;20232;-51
2022/10/15 02:39:02;;;;;;;0.60;0.60;;;13.40;99.90;;;;;;5092813;28;20204;-51
2022/10/15 02:41:29;;;;;;;0.80;0.70;;;13.40;99.90;;;;;;5083907;28;20204;-51
2022/10/15 02:43:56;;;;;;;1.53;0.77;;;13.40;99.90;;;;;;5083401;28;20216;-51
2022/10/15 02:46:23;;;;;;;0.80;0.80;;;13.40;99.90;;;;;;5081100;28;20262;-51
2022/10/15 02:48:52;;;;;;;0.43;0.40;;;13.40;99.90;;;;;;5077826;28;20208;-51
2022/10/15 02:51:19;;;;;;;0.60;0.60;;;13.40;99.90;;;;;;5093020;28;20260;-51
2022/10/15 02:53:47;;;;;;;0.83;0.80;;;13.30;99.90;;;;;;5092670;28;20235;-51
2022/10/15 02:56:14;;;;;;;0.40;0.40;;;13.40;99.90;;;;;;5086799;28;20666;-51
2022/10/15 02:58:45;;;;;;;0.70;0.70;;;13.40;99.90;;;;;;5088370;28;20208;-51
2022/10/15 03:01:12;;;;;;;1.40;0.50;;;13.40;99.90;;;;;;5078922;28;20242;-51
2022/10/15 03:03:42;;;;;;;0.60;0.60;;;13.40;99.90;;;;;;5079423;28;20223;-51
2022/10/15 03:06:10;;;;;;;2.63;0.60;;;13.40;99.90;;;;;;5077251;28;20195;-51
2022/10/15 03:08:37;;;;;;;3.13;0.73;;;13.40;99.90;;;;;;5083245;28;20206;-51
2022/10/15 03:11:04;;;;;;;1.27;0.77;;;13.40;99.90;;;;;;5087217;28;20197;-51
2022/10/15 03:13:35;;;;;;;0.70;0.67;;;13.30;99.90;;;;;;5089941;28;20223;-51
2022/10/15 03:16:04;;;;;;;0.60;0.60;;;13.30;99.90;;;;;;5083386;28;20204;-50
2022/10/15 03:18:31;;;;;;;1.23;0.40;;;13.40;99.90;;;;;;5081785;28;20192;-51
2022/10/15 03:20:59;;;;;;;0.97;0.53;;;13.40;99.90;;;;;;5080375;28;20203;-51
2022/10/15 03:23:29;;;;;;;2.40;0.70;;;13.40;99.90;;;;;;5085344;28;20643;-51
2022/10/15 03:25:56;;;;;;;0.73;0.70;;;13.40;99.90;;;;;;5072539;28;20207;-51
2022/10/15 03:28:23;;;;;;;2.90;0.90;;;13.40;99.90;;;;;;5072295;28;20211;-51
2022/10/15 03:30:50;;;;;;;1.67;0.70;;;13.40;99.90;;;;;;5077708;28;20578;-51
2022/10/15 03:33:17;;;;;;;0.93;0.60;;;13.40;99.90;;;;;;5078486;28;20594;-51
2022/10/15 03:35:45;;;;;;;0.70;0.70;;;13.50;99.90;;;;;;5080850;28;20214;-51
2022/10/15 03:38:12;;;;;;;2.30;0.50;;;13.50;99.90;;;;;;5076855;28;20209;-51
2022/10/15 03:40:40;;;;;;;1.50;0.67;;;13.50;99.90;;;;;;5092280;28;20201;-51
2022/10/15 03:43:07;;;;;;;3.13;0.80;;;13.50;99.90;;;;;;5091494;28;20231;-51
2022/10/15 03:45:34;;;;;;;0.50;0.50;;;13.60;99.90;;;;;;5090845;28;20208;-52
2022/10/15 03:48:01;;;;;;;1.43;0.70;;;13.60;99.90;;;;;;5083382;28;20204;-51
2022/10/15 03:50:28;;;;;;;0.60;0.50;;;13.60;99.90;;;;;;5084154;28;20201;-51
2022/10/15 03:52:55;;;;;;;0.73;0.73;;;13.50;99.90;;;;;;5090876;28;20754;-51
2022/10/15 03:55:22;;;;;;;1.83;1.27;;;13.60;99.90;;;;;;5091704;28;20208;-51
2022/10/15 03:57:51;;;;;;;1.20;0.50;;;13.60;99.90;;;;;;5086969;28;20587;-51
2022/10/15 04:00:18;;;;;;;1.03;0.50;;;13.60;99.90;;;;;;5077622;28;20202;-51
2022/10/15 04:02:45;;;;;;;2.10;0.70;;;13.70;99.90;;;;;;5082074;28;20712;-51
2022/10/15 04:05:12;;;;;;;0.47;0.43;;;13.70;99.90;;;;;;5078941;28;20194;-51
2022/10/15 04:07:39;;;;;;;2.73;1.43;;;13.70;99.90;;;;;;5071308;28;20696;-51
2022/10/15 04:10:07;;;;;;;0.67;0.60;;;13.60;99.90;;;;;;5071539;28;20242;-51
2022/10/15 04:12:34;;;;;;;0.70;0.70;;;13.60;99.90;;;;;;5081120;28;20627;-51
2022/10/15 04:15:03;;;;;;;0.80;0.40;;;13.60;99.90;;;;;;5082347;28;20200;-51
2022/10/15 04:17:30;;;;;;;0.73;0.73;;;13.60;99.90;;;;;;5089518;28;20576;-51
2022/10/15 04:19:57;;;;;;;0.70;0.70;;;13.60;99.90;;;;;;5074932;28;20203;-51
2022/10/15 04:22:24;;;;;;;3.80;0.80;;;13.60;99.90;;;;;;5071387;28;20221;-51
2022/10/15 04:24:51;;;;;;;0.50;0.50;;;13.60;99.90;;;;;;5071389;28;20259;-51
2022/10/15 04:27:18;;;;;;;1.13;0.70;;;13.60;99.90;;;;;;5079289;28;20196;-51
2022/10/15 04:29:47;;;;;;;1.13;0.70;;;13.60;99.90;;;;;;5079103;28;20196;-51
2022/10/15 04:32:16;;;;;;;0.50;0.50;;;13.60;99.90;;;;;;5072558;28;20245;-51
2022/10/15 04:34:44;;;;;;;0.40;0.40;;;13.60;99.90;;;;;;5078779;28;20302;-51
2022/10/15 04:37:11;;;;;;;1.47;0.77;;;13.60;99.90;;;;;;5076544;28;20189;-51
2022/10/15 04:39:38;;;;;;;0.70;0.70;;;13.50;99.90;;;;;;5075660;28;20197;-51
2022/10/15 04:42:05;;;;;;;0.47;0.47;;;13.50;99.90;;;;;;5083774;28;20251;-52
2022/10/15 04:44:32;;;;;;;1.53;0.80;;;13.50;99.90;;;;;;5078383;28;20282;-51
2022/10/15 04:47:00;;;;;;;0.73;0.73;;;13.50;99.90;;;;;;5093254;28;20196;-53
2022/10/15 04:49:29;;;;;;;0.60;0.60;;;13.50;99.90;;;;;;5084882;28;20287;-52
2022/10/15 04:51:56;;;;;;;3.57;2.07;;;13.50;99.90;;;;;;5084332;28;20233;-51
2022/10/15 04:54:23;;;;;;;0.73;0.60;;;13.50;99.90;;;;;;5079833;28;20243;-51
2022/10/15 04:56:50;;;;;;;1.57;1.00;;;13.60;99.90;;;;;;5075470;28;20225;-51
2022/10/15 04:59:17;;;;;;;0.63;0.60;;;13.60;99.90;;;;;;5081636;28;20204;-51
2022/10/15 05:01:44;;;;;;;0.60;0.60;;;13.60;99.90;;;;;;5082165;28;20201;-51
2022/10/15 05:04:12;;;;;;;5.07;0.60;;;13.60;99.90;;;;;;5074474;28;20222;-51
2022/10/15 05:06:40;;;;;;;0.80;0.80;;;13.70;99.90;;;;;;5076366;28;20197;-51
2022/10/15 05:09:07;;;;;;;1.23;0.50;;;13.70;99.90;;;;;;5084170;28;20220;-51
2022/10/15 05:11:37;;;;;;;1.33;0.43;;;13.70;99.90;;;;;;5083512;28;20204;-51
2022/10/15 05:14:04;;;;;;;1.27;0.70;;;13.70;99.90;;;;;;5078948;28;20609;-51
2022/10/15 05:16:32;;;;;;;0.50;0.50;;;13.70;99.90;;;;;;5074310;28;20198;-51
2022/10/15 05:19:00;;;;;;;0.63;0.63;;;13.70;99.90;;;;;;5074381;28;20251;-51
2022/10/15 05:21:28;;;;;;;0.40;0.40;;;13.80;99.90;;;;;;5074235;28;20193;-51
2022/10/15 05:23:57;;;;;;;0.60;0.40;;;13.80;99.90;;;;;;5078910;28;20221;-52
2022/10/15 05:26:26;;;;;;;0.47;0.47;;;13.80;99.90;;;;;;5085092;28;20204;-52
2022/10/15 05:28:55;;;;;;;1.90;0.70;;;13.70;99.90;;;;;;5084766;28;20201;-51
2022/10/15 05:31:24;;;;;;;16.33;1.10;;;13.70;99.90;;;;;;5091198;28;20200;-52
2022/10/15 05:33:53;;;;;;;1.47;0.70;;;13.80;99.90;;;;;;5073819;28;20220;-51
2022/10/15 05:36:22;;;;;;;0.50;0.50;;;13.80;99.90;;;;;;5073741;28;20200;-51
2022/10/15 05:38:51;;;;;;;1.57;0.60;;;13.80;99.90;;;;;;5083739;28;20253;-51
2022/10/15 05:41:20;;;;;;;2.97;0.67;;;13.70;99.90;;;;;;5080735;28;20713;-51
2022/10/15 05:43:47;;;;;;;1.40;0.63;;;13.70;99.90;;;;;;5080464;28;20709;-51
2022/10/15 05:46:15;;;;;;;2.53;0.70;;;13.70;99.90;;;;;;5078214;28;20192;-51
2022/10/15 05:48:42;;;;;;;0.50;0.50;;;13.70;99.90;;;;;;5085407;28;20204;-51
2022/10/15 05:51:11;;;;;;;2.40;1.10;;;13.70;99.90;;;;;;5083128;28;20206;-51
2022/10/15 05:53:42;;;;;;;1.03;0.97;;;13.60;99.90;;;;;;5073628;28;20209;-51
2022/10/15 05:56:09;;;;;;;2.80;0.80;;;13.60;99.90;;;;;;5079931;28;20256;-53
2022/10/15 05:58:38;;;;;;;2.20;1.47;;;13.60;99.90;;;;;;5087492;28;20668;-52
2022/10/15 06:01:06;;;;;;;2.00;0.97;;;13.60;99.90;;;;;;5074382;28;20209;-51
2022/10/15 06:03:34;;;;;;;1.77;0.77;;;13.60;99.90;;;;;;5080954;28;20223;-51
2022/10/15 06:06:01;;;;;;;1.50;0.60;;;13.60;99.90;;;;;;5079255;28;20234;-51
2022/10/15 06:08:29;;;;;;;0.50;0.50;;;13.60;99.90;;;;;;5081196;28;20208;-51
2022/10/15 06:11:02;;;;;;;0.80;0.80;;;13.60;99.90;;;;;;5073342;28;20220;-52
2022/10/15 06:13:29;;;;;;;1.33;0.50;;;13.60;99.90;;;;;;5079637;28;20214;-51
2022/10/15 06:15:57;;;;;;;0.83;0.50;;;13.70;99.90;;;;;;5084008;28;20727;-51
2022/10/15 06:18:24;;;;;;;1.87;0.70;;;13.70;99.90;;;;;;5083409;28;20674;-50
2022/10/15 06:20:52;;;;;;;0.50;0.50;;;13.70;99.90;;;;;;5078176;28;20197;-51
2022/10/15 06:23:20;;;;;;;0.70;0.63;;;13.60;99.90;;;;;;5079004;28;20243;-51
2022/10/15 06:25:48;;;;;;;1.00;1.00;;;13.60;99.90;;;;;;5075584;28;20207;-51
2022/10/15 06:28:15;;;;;;;1.80;1.33;;;13.60;99.90;;;;;;5085485;28;20192;-51
2022/10/15 06:30:42;;;;;;;2.00;1.07;;;13.70;99.90;;;;;;5082278;28;20189;-52
2022/10/15 06:33:11;;;;;;;2.27;2.07;;;13.60;99.90;;;;;;5082987;28;20652;-51
2022/10/15 06:35:39;;;;;;;2.13;2.03;;;13.70;99.90;;;;;;5091682;28;20197;-51
2022/10/15 06:38:06;;;;;;;2.50;2.30;;;13.70;99.90;;;;;;5073467;28;20287;-52
2022/10/15 06:40:33;;;;;;;2.37;2.17;;;13.70;99.90;;;;;;5090558;28;20254;-51
2022/10/15 06:43:04;;;;;;;2.30;2.20;;;13.70;99.90;;;;;;5080231;28;20221;-50
2022/10/15 06:45:31;;;;;;;2.43;2.23;;;13.70;99.90;;;;;;5080538;28;20657;-51
2022/10/15 06:47:58;;;;;;;2.63;2.43;;;13.70;99.90;;;;;;5089055;28;20197;-51
2022/10/15 06:50:27;;;;;;;3.13;2.53;;;13.70;99.90;;;;;;5080639;28;20205;-51
2022/10/15 06:52:54;;;;;;;3.07;2.43;;;13.70;99.90;;;;;;5080681;28;20221;-51
2022/10/15 06:55:21;;;;;;;5.40;2.50;;;13.70;99.90;;;;;;5072089;28;20270;-51
2022/10/15 06:57:49;;;;;;;2.27;2.17;;;13.70;99.90;;;;;;5089350;28;20261;-51
2022/10/15 07:00:16;;;;;;;3.70;3.03;;;13.70;99.90;;;;;;5086124;28;20279;-50
2022/10/15 07:02:43;;;;;;;2.87;2.37;;;13.70;99.90;;;;;;5087216;28;20304;-51
2022/10/15 07:05:10;;;;;;;3.57;3.27;;;13.80;99.90;;;;;;5076773;28;20221;-51
2022/10/15 07:07:38;;;;;;;2.70;2.60;;;13.80;99.90;;;;;;5085172;28;20211;-51
2022/10/15 07:10:06;;;;;;;2.37;2.27;;;13.80;99.90;;;;;;5077371;28;20197;-51
2022/10/15 07:12:33;;;;;;;2.37;2.27;;;13.80;99.90;;;;;;5078042;28;20216;-51
2022/10/15 07:15:00;;;;;;;2.30;2.20;;;13.80;99.90;;;;;;5084456;28;20188;-51
2022/10/15 07:17:29;;;;;;;2.07;1.97;;;13.90;99.90;;;;;;5078583;28;20655;-51
2022/10/15 07:19:56;;;;;;;1.67;1.57;;;13.90;99.90;;;;;;5071342;28;20193;-51
2022/10/15 07:22:23;;;;;;;2.10;1.90;;;13.90;99.90;;;;;;5075947;28;20277;-51
2022/10/15 07:24:52;;;;;;;2.00;1.90;;;14.00;99.90;;;;;;5081495;28;20247;-51
2022/10/15 07:27:19;;;;;;;1.63;1.40;;;14.00;99.90;;;;;;5084237;28;20300;-50
2022/10/15 07:29:46;;;;;;;1.97;1.63;;;14.00;99.90;;;;;;5086212;28;20210;-51
2022/10/15 07:32:14;;;;;;;1.00;1.00;;;14.00;99.90;;;;;;5081807;28;20212;-51
2022/10/15 07:34:41;;;;;;;1.30;1.13;;;14.10;99.90;;;;;;5086310;28;20189;-51
2022/10/15 07:37:16;;;;;;;1.77;0.90;;;14.10;99.90;;;;;;5080182;28;20196;-51
2022/10/15 07:39:43;;;;;;;1.53;1.40;;;14.20;99.90;;;;;;5084407;28;20199;-51
2022/10/15 07:42:11;;;;;;;3.63;2.80;;;14.30;99.90;;;;;;5077881;28;20274;-51
2022/10/15 07:44:38;;;;;;;3.57;2.67;;;14.40;99.90;;;;;;5070842;28;20689;-51
2022/10/15 07:47:06;;;;;;;2.70;2.60;;;14.50;99.90;;;;;;5074229;28;20626;-51
2022/10/15 07:49:34;;;;;;;3.03;2.73;;;14.60;99.90;;;;;;5082107;28;20200;-50
2022/10/15 07:52:01;;;;;;;3.30;3.20;;;14.70;99.90;;;;;;5086062;28;20216;-51
2022/10/15 07:54:28;;;;;;;3.33;3.23;;;14.70;99.90;;;;;;5083948;28;20199;-51
2022/10/15 07:56:54;;;;;;;3.73;3.17;;;14.80;99.90;;;;;;5080971;28;20345;-50
2022/10/15 07:59:23;;;;;;;2.53;2.33;;;14.80;99.90;;;;;;5081031;28;20258;-50
2022/10/15 08:01:51;;;;;;;1.33;1.33;;;14.80;99.90;;;;;;5078236;28;20270;-51
2022/10/15 08:04:19;;;;;;;3.33;1.17;;;14.90;99.90;;;;;;5079862;28;20209;-52
2022/10/15 08:06:46;;;;;;;1.57;1.40;;;15.00;99.90;;;;;;5073071;28;20193;-50
2022/10/15 08:09:13;;;;;;;1.47;1.17;;;15.00;99.90;;;;;;5086340;28;20608;-51
2022/10/15 08:11:40;;;;;;;1.10;1.10;;;15.10;99.90;;;;;;5089732;28;20200;-51
2022/10/15 08:14:07;;;;;;;0.73;0.70;;;15.20;99.90;;;;;;5092796;28;20197;-50
2022/10/15 08:16:36;;;;;;;0.60;0.60;;;15.30;99.90;;;;;;5087773;28;20201;-51
2022/10/15 08:19:03;;;;;;;1.90;0.93;;;15.40;99.90;;;;;;5088600;28;20269;-51
2022/10/15 08:21:30;;;;;;;1.30;0.90;;;15.40;99.90;;;;;;5089133;28;20201;-51
2022/10/15 08:23:59;;;;;;;1.40;0.80;;;15.50;99.90;;;;;;5083763;28;20224;-51
2022/10/15 08:26:26;;;;;;;1.07;1.07;;;15.60;99.90;;;;;;5080863;28;20205;-51
2022/10/15 08:28:53;;;;;;;2.30;0.90;;;15.60;99.90;;;;;;5088416;28;20197;-50
2022/10/15 08:31:21;;;;;;;1.83;1.73;;;15.70;99.90;;;;;;5082910;28;20211;-51
2022/10/15 08:33:50;;;;;;;2.33;0.83;;;15.70;99.90;;;;;;5080714;28;20219;-51
2022/10/15 08:36:17;;;;;;;1.30;1.20;;;15.70;99.90;;;;;;5085544;28;20638;-51
2022/10/15 08:38:44;;;;;;;1.07;1.07;;;15.70;99.90;;;;;;5086795;28;20204;-52
2022/10/15 08:41:24;;;;;;;1.50;1.40;;;15.80;99.90;;;;;;5087561;28;20189;-51
2022/10/15 08:43:52;;;;;;;1.53;1.43;;;15.90;99.90;;;;;;5088289;28;20238;-51
2022/10/15 08:46:24;;;;;;;1.57;1.10;;;15.90;99.90;;;;;;5076813;28;20201;-51
2022/10/15 08:48:55;;;;;;;2.50;2.17;;;16.20;99.90;;;;;;5079836;28;20200;-51
2022/10/15 08:51:25;;;;;;;1.17;1.17;;;16.40;99.90;;;;;;5083595;28;20720;-51
2022/10/15 08:53:54;;;;;;;1.47;1.37;;;16.60;99.90;;;;;;5079295;28;20216;-51
2022/10/15 08:56:27;;;;;;;2.37;1.70;;;16.80;99.90;;;;;;5085013;28;20198;-51
2022/10/15 08:59:01;;;;;;;5.60;1.77;;;16.80;99.90;;;;;;5086728;28;20196;-51
2022/10/15 09:01:34;;;;;;;2.73;1.10;;;17.10;99.90;;;;;;5080975;28;20250;-51
2022/10/15 09:04:14;;;;;;;0.93;0.93;;;17.20;99.90;;;;;;5089029;28;20265;-51
2022/10/15 09:06:42;;;;;;;1.57;0.90;;;17.10;99.90;;;;;;5094078;28;20639;-51
2022/10/15 09:09:18;;;;;;;0.80;0.80;;;17.10;99.90;;;;;;5089144;28;20189;-51
2022/10/15 09:11:54;;;;;;;1.67;1.50;;;17.20;99.90;;;;;;5082926;28;20223;-51
2022/10/15 09:14:28;;;;;;;2.57;1.10;;;17.20;99.90;;;;;;5083062;28;20196;-51
2022/10/15 09:16:55;;;;;;;1.13;1.10;;;17.30;99.90;;;;;;5084968;28;20196;-51
2022/10/15 09:19:26;;;;;;;3.33;1.20;;;17.30;99.90;;;;;;5088012;28;20201;-51
2022/10/15 09:21:53;;;;;;;1.27;1.27;;;17.30;99.90;;;;;;5082323;28;20204;-51
2022/10/15 09:24:23;;;;;;;2.20;1.20;;;17.50;99.90;;;;;;5082916;28;20415;-50
2022/10/15 09:27:03;;;;;;;2.07;1.13;;;17.50;99.90;;;;;;5074091;28;20238;-51
2022/10/15 09:29:36;;;;;;;2.23;1.10;;;17.50;99.90;;;;;;5082701;28;20207;-51
2022/10/15 09:32:13;;;;;;;0.80;0.80;;;17.50;99.90;;;;;;5074402;28;20221;-50
2022/10/15 09:34:46;;;;;;;1.50;1.40;;;17.60;99.90;;;;;;5073033;28;20662;-52
2022/10/15 09:37:21;;;;;;;2.20;1.33;;;17.50;99.90;;;;;;5081495;28;20270;-51
2022/10/15 09:40:04;;;;;;;1.70;1.70;;;17.60;99.90;;;;;;5080055;28;20204;-51
2022/10/15 09:42:36;;;;;;;1.30;1.20;;;17.70;99.90;;;;;;5097662;28;20247;-51
2022/10/15 09:45:05;;;;;;;0.77;0.77;;;17.80;99.90;;;;;;5083093;28;20220;-51
2022/10/15 09:47:34;;;;;;;5.70;2.67;;;17.80;99.90;;;;;;5076477;28;20224;-51
2022/10/15 09:50:04;;;;;;;2.40;1.10;;;17.80;99.90;;;;;;5080399;28;20270;-52
2022/10/15 09:52:47;;;;;;;1.90;0.87;;;17.80;99.90;;;;;;5073513;28;20225;-51
2022/10/15 09:55:29;;;;;;;1.33;0.97;;;17.80;99.90;;;;;;5079767;28;20251;-51
2022/10/15 09:58:01;;;;;;;1.03;0.80;;;17.80;99.90;;;;;;5084198;28;20263;-51
2022/10/15 10:00:56;;;;;;;1.67;1.00;;;17.80;99.90;;;;;;5086768;28;20204;-51
2022/10/15 10:03:24;;;;;;;1.20;1.20;;;17.70;99.90;;;;;;5073154;28;20259;-51
2022/10/15 10:06:01;;;;;;;1.70;0.80;;;17.60;99.90;;;;;;5079831;28;20217;-51
2022/10/15 10:08:32;;;;;;;1.53;0.80;;;17.50;99.90;;;;;;5080568;28;20207;-51
2022/10/15 10:11:00;;;;;;;1.73;1.10;;;17.60;99.90;;;;;;5075700;28;20247;-51
2022/10/15 10:13:30;;;;;;;3.00;1.47;;;17.50;99.90;;;;;;5083891;28;20783;-51
2022/10/15 10:16:03;;;;;;;6.03;1.97;;;17.40;99.90;;;;;;5079298;28;20192;-51
2022/10/15 10:18:31;;;;;;;1.43;1.33;;;17.40;99.90;;;;;;5092346;28;20258;-51
2022/10/15 10:21:01;;;;;;;1.53;1.10;;;17.30;99.90;;;;;;5076552;28;20192;-51
2022/10/15 10:23:33;;;;;;;1.00;1.00;;;17.40;99.90;;;;;;5092768;28;20725;-51
2022/10/15 10:26:02;;;;;;;1.90;1.00;;;17.40;99.90;;;;;;5082232;28;20333;-51
2022/10/15 10:28:33;;;;;;;1.40;1.23;;;17.40;99.90;;;;;;5082808;28;20712;-52
2022/10/15 10:31:04;;;;;;;2.37;1.30;;;17.40;99.90;;;;;;5079555;28;20280;-51
2022/10/15 10:33:34;;;;;;;3.90;1.10;;;17.50;99.90;;;;;;5079716;28;20270;-51
2022/10/15 10:36:04;;;;;;;3.73;1.33;;;17.60;99.90;;;;;;5080248;28;20194;-51
2022/10/15 10:38:34;;;;;;;1.43;0.93;;;17.60;99.90;;;;;;5075113;28;20197;-51
2022/10/15 10:41:06;;;;;;;4.40;1.20;;;17.70;99.90;;;;;;5071973;28;20197;-51
2022/10/15 10:43:34;;;;;;;1.20;1.13;;;17.90;99.90;;;;;;5071593;28;20762;-51
2022/10/15 10:46:03;;;;;;;1.10;1.00;;;18.10;99.90;;;;;;5071882;28;20220;-51
2022/10/15 10:48:39;;;;;;;1.10;1.10;;;18.20;99.90;;;;;;5080552;28;20197;-51
2022/10/15 10:51:11;;;;;;;0.93;0.50;;;18.40;99.90;;;;;;5081332;28;20192;-51
2022/10/15 10:53:47;;;;;;;1.23;1.00;;;18.50;99.90;;;;;;5087708;28;20701;-52
2022/10/15 10:56:17;;;;;;;0.57;0.57;;;18.60;99.90;;;;;;5077540;28;20193;-51
2022/10/15 10:58:46;;;;;;;0.90;0.60;;;18.60;99.90;;;;;;5090348;28;20273;-51
2022/10/15 11:01:15;;;;;;;10.30;0.73;;;18.50;99.90;;;;;;5077231;28;20196;-51
2022/10/15 11:03:47;;;;;;;2.23;0.77;;;18.40;99.90;;;;;;5092214;28;20302;-51
2022/10/15 11:06:49;;;;;;;2.07;0.60;;;18.40;99.90;;;;;;5076971;28;20224;-51
2022/10/15 11:09:28;;;;;;;4.70;0.60;;;18.40;99.90;;;;;;5079304;28;20197;-51
2022/10/15 11:12:08;;;;;;;0.60;0.60;;;18.30;99.90;;;;;;5082855;28;20753;-52
2022/10/15 11:14:47;;;;;;;1.30;1.30;;;18.20;99.90;;;;;;5090007;28;20189;-51
2022/10/15 11:17:23;;;;;;;0.60;0.60;;;18.20;99.90;;;;;;5092234;28;20236;-52
2022/10/15 11:19:57;;;;;;;2.00;0.73;;;18.20;99.90;;;;;;5082452;28;20204;-51
2022/10/15 11:22:39;;;;;;;0.93;0.93;;;18.10;99.90;;;;;;5082913;28;20224;-51
2022/10/15 11:25:17;;;;;;;1.43;0.77;;;18.00;99.90;;;;;;5084336;28;20216;-51
2022/10/15 11:27:58;;;;;;;1.77;0.97;;;17.90;99.90;;;;;;5091275;28;20200;-51
2022/10/15 11:30:38;;;;;;;0.80;0.80;;;17.80;99.90;;;;;;5082513;28;20648;-51
2022/10/15 11:33:24;;;;;;;2.33;1.20;;;17.70;99.90;;;;;;5071393;28;20229;-51
2022/10/15 11:35:59;;;;;;;2.30;1.00;;;17.70;99.90;;;;;;5082018;28;20193;-51
2022/10/15 11:38:41;;;;;;;1.83;1.00;;;17.40;99.90;;;;;;5088812;28;20203;-51
2022/10/15 11:41:25;;;;;;;1.10;0.90;;;17.30;99.90;;;;;;5071269;28;20708;-51
2022/10/15 11:44:07;;;;;;;0.70;0.70;;;17.40;99.90;;;;;;5080048;28;20220;-51
2022/10/15 11:46:41;;;;;;;1.80;1.47;;;17.30;99.90;;;;;;5089802;28;20285;-51
2022/10/15 11:49:23;;;;;;;9.33;2.07;;;17.30;99.90;;;;;;5088896;28;20213;-51
2022/10/15 11:52:13;;;;;;;1.43;1.33;;;17.20;99.90;;;;;;5078093;28;20200;-51
2022/10/15 11:54:43;;;;;;;1.50;1.47;;;17.20;99.90;;;;;;5087516;28;20310;-51
2022/10/15 11:57:15;;;;;;;1.30;1.30;;;17.30;99.90;;;;;;5082401;28;20212;-51
2022/10/15 11:59:48;;;;;;;1.23;1.23;;;17.30;99.90;;;;;;5078310;28;20205;-51
2022/10/15 12:02:20;;;;;;;2.40;1.27;;;17.20;99.90;;;;;;5076703;28;20765;-51
2022/10/15 12:04:50;;;;;;;1.47;1.37;;;17.20;99.90;;;;;;5070626;28;20278;-51
2022/10/15 12:07:22;;;;;;;2.30;1.93;;;17.20;99.90;;;;;;5070649;28;20189;-51
2022/10/15 12:09:55;;;;;;;3.03;1.63;;;17.20;99.90;;;;;;5070322;28;20197;-51
2022/10/15 12:12:33;;;;;;;1.77;1.40;;;17.20;99.90;;;;;;5075351;28;20898;-51
2022/10/15 12:15:14;;;;;;;2.13;1.20;;;17.20;99.90;;;;;;5082577;28;20321;-51
2022/10/15 12:17:49;;;;;;;0.90;0.90;;;17.30;99.90;;;;;;5089113;28;20204;-50
2022/10/15 12:20:19;;;;;;;1.50;0.90;;;17.40;99.90;;;;;;5073544;28;20204;-52
2022/10/15 12:22:57;;;;;;;1.03;1.03;;;17.60;99.90;;;;;;5070356;28;20216;-51
2022/10/15 12:25:46;;;;;;;4.73;1.60;;;17.80;99.90;;;;;;5070416;28;20836;-50
2022/10/15 12:28:16;;;;;;;2.67;1.20;;;18.00;99.90;;;;;;5083029;28;20220;-51
2022/10/15 12:30:57;;;;;;;1.30;1.30;;;18.30;99.90;;;;;;5081358;28;20666;-51
2022/10/15 12:33:31;;;;;;;1.43;1.33;;;18.60;99.90;;;;;;5089402;28;20273;-52
2022/10/15 12:36:00;;;;;;;3.20;1.33;;;18.70;99.90;;;;;;5088686;28;20200;-52
2022/10/15 12:38:30;;;;;;;1.67;1.43;;;18.70;99.90;;;;;;5071074;28;20193;-51
2022/10/15 12:41:05;;;;;;;4.40;1.67;;;18.60;99.90;;;;;;5070373;28;20285;-50
2022/10/15 12:43:34;;;;;;;5.10;1.50;;;18.60;99.90;;;;;;5070123;28;20299;-51
2022/10/15 12:46:03;;;;;;;1.40;1.30;;;18.60;99.90;;;;;;5082494;28;20308;-51
2022/10/15 12:48:33;;;;;;;4.30;1.47;;;18.50;99.90;;;;;;5073587;28;20250;-50
2022/10/15 12:51:34;;;;;;;1.10;1.10;;;18.50;99.90;;;;;;5080782;28;20246;-51
2022/10/15 12:54:01;;;;;;;1.17;1.07;;;18.60;99.90;;;;;;5056907;28;20622;-51
2022/10/15 12:56:40;;;;;;;1.13;1.03;;;18.70;99.90;;;;;;5073870;28;20279;-51
2022/10/15 12:59:52;;;;;;;2.50;1.50;;;18.70;99.90;;;;;;5074041;28;20201;-51
2022/10/15 13:02:36;;;;;;;2.93;0.87;;;18.80;99.90;;;;;;5092407;28;20234;-51
2022/10/15 13:05:03;;;;;;;0.70;0.70;;;18.80;99.90;;;;;;5081308;28;20201;-51
2022/10/15 13:07:33;;;;;;;1.13;0.70;;;18.80;99.90;;;;;;5073778;28;20217;-51